Time;durP1;ratioP1;P1;durP2;ratioP2;P2;SDS_P1;SDS_P2;PMS_P1;PMS_P2;Temp;Humidity;BMP_temperature;BMP_pressure;BME280_temperature;BME280_humidity;BME280_pressure;Samples;Min_cycle;Max_cycle;Signal;HPM_P1;HPM_P2
2022/07/13 00:02:07;;;;;;;5.65;4.35;;;21.80;93.40;;;;;;4982041;28;20113;-44
2022/07/13 00:04:33;;;;;;;6.85;5.45;;;21.80;93.40;;;;;;4983390;28;20050;-48
2022/07/13 00:06:58;;;;;;;7.60;5.28;;;21.80;93.50;;;;;;4983752;28;20046;-48
2022/07/13 00:09:24;;;;;;;8.25;5.47;;;21.80;93.60;;;;;;4988472;28;20579;-43
2022/07/13 00:11:49;;;;;;;5.70;5.00;;;21.70;93.80;;;;;;4985483;28;20627;-44
2022/07/13 00:14:16;;;;;;;7.68;5.82;;;21.70;93.90;;;;;;4982854;28;20042;-43
2022/07/13 00:16:41;;;;;;;7.70;5.30;;;21.60;94.10;;;;;;4986525;28;20495;-47
2022/07/13 00:19:07;;;;;;;8.63;5.03;;;21.60;94.20;;;;;;4985173;28;20031;-46
2022/07/13 00:21:33;;;;;;;6.32;4.47;;;21.60;94.30;;;;;;4987812;28;20031;-44
2022/07/13 00:23:59;;;;;;;9.98;5.18;;;21.50;94.40;;;;;;4982110;28;20044;-44
2022/07/13 00:26:25;;;;;;;5.70;4.75;;;21.50;94.50;;;;;;4983087;28;20120;-43
2022/07/13 00:28:51;;;;;;;6.55;4.90;;;21.50;94.70;;;;;;4979700;28;20480;-45
2022/07/13 00:31:16;;;;;;;6.22;5.32;;;21.40;94.90;;;;;;4978560;28;20038;-45
2022/07/13 00:33:42;;;;;;;7.38;5.63;;;21.40;95.20;;;;;;4983163;28;20083;-47
2022/07/13 00:36:08;;;;;;;6.57;5.50;;;21.40;95.40;;;;;;4985113;28;20459;-44
2022/07/13 00:38:35;;;;;;;9.70;6.65;;;21.40;95.50;;;;;;4985047;28;20862;-46
2022/07/13 00:41:01;;;;;;;8.88;6.85;;;21.40;95.60;;;;;;4982944;28;20073;-45
2022/07/13 00:43:26;;;;;;;8.02;6.40;;;21.30;95.80;;;;;;4984426;28;20523;-44
2022/07/13 00:45:52;;;;;;;6.68;5.78;;;21.20;95.90;;;;;;4987244;28;20496;-42
2022/07/13 00:48:18;;;;;;;7.65;6.20;;;21.20;96.10;;;;;;4981593;28;20034;-43
2022/07/13 00:50:45;;;;;;;7.55;6.25;;;21.20;96.20;;;;;;4983465;28;20034;-46
2022/07/13 00:53:11;;;;;;;7.82;5.78;;;21.20;96.30;;;;;;4983406;28;20046;-44
2022/07/13 00:55:37;;;;;;;7.00;5.93;;;21.20;96.30;;;;;;4983793;28;20120;-45
2022/07/13 00:58:03;;;;;;;10.65;6.10;;;21.20;96.20;;;;;;4984571;28;20566;-46
2022/07/13 01:00:29;;;;;;;8.02;5.53;;;21.20;96.30;;;;;;4981772;28;20134;-44
2022/07/13 01:02:54;;;;;;;6.93;5.90;;;21.10;96.40;;;;;;4985045;28;20499;-45
2022/07/13 01:05:20;;;;;;;7.05;5.55;;;21.10;96.50;;;;;;4982150;28;20144;-45
2022/07/13 01:07:47;;;;;;;5.97;4.57;;;21.10;96.70;;;;;;4980571;28;20125;-44
2022/07/13 01:10:13;;;;;;;9.15;5.50;;;21.10;96.90;;;;;;4986141;28;20523;-44
2022/07/13 01:12:39;;;;;;;5.75;5.00;;;21.10;97.10;;;;;;4984900;28;20074;-44
2022/07/13 01:15:06;;;;;;;7.38;4.65;;;21.10;97.20;;;;;;4984906;28;20041;-44
2022/07/13 01:17:34;;;;;;;6.93;5.07;;;21.10;97.30;;;;;;4985627;28;20124;-47
2022/07/13 01:20:01;;;;;;;7.40;6.18;;;21.10;97.50;;;;;;4982104;28;20054;-44
2022/07/13 01:22:37;;;;;;;7.70;5.40;;;21.10;97.20;;;;;;4979992;28;20053;-43
2022/07/13 01:25:06;;;;;;;6.55;5.68;;;21.10;97.40;;;;;;4984162;28;20030;-44
2022/07/13 01:27:34;;;;;;;7.40;5.40;;;21.10;97.00;;;;;;4983972;28;20057;-45
2022/07/13 01:30:00;;;;;;;8.00;5.75;;;21.10;97.00;;;;;;4984228;28;20065;-44
2022/07/13 01:32:26;;;;;;;7.25;5.45;;;21.10;96.90;;;;;;4986439;28;20046;-43
2022/07/13 01:34:51;;;;;;;8.13;5.43;;;21.10;96.70;;;;;;4984685;28;20500;-44
2022/07/13 01:37:18;;;;;;;5.40;4.80;;;21.10;96.50;;;;;;4977180;28;20038;-44
2022/07/13 01:39:44;;;;;;;6.57;4.82;;;21.10;96.50;;;;;;4982030;28;20113;-45
2022/07/13 01:42:10;;;;;;;10.88;5.45;;;21.10;96.40;;;;;;4981869;28;20543;-48
2022/07/13 01:44:35;;;;;;;6.68;4.50;;;21.10;96.30;;;;;;4982484;28;20046;-44
2022/07/13 01:47:08;;;;;;;7.40;4.30;;;21.10;96.30;;;;;;4982433;28;20141;-43
2022/07/13 01:49:34;;;;;;;6.18;4.03;;;21.10;96.40;;;;;;4984749;28;20042;-47
2022/07/13 01:52:00;;;;;;;5.80;4.25;;;21.10;96.40;;;;;;4979782;28;20057;-44
2022/07/13 01:54:26;;;;;;;5.28;4.38;;;21.10;96.30;;;;;;4987138;28;20096;-45
2022/07/13 01:56:52;;;;;;;4.90;3.65;;;21.10;96.20;;;;;;4983212;28;20045;-42
2022/07/13 01:59:18;;;;;;;4.65;3.60;;;21.10;96.70;;;;;;4981799;28;20046;-43
2022/07/13 02:01:44;;;;;;;4.70;3.65;;;21.10;96.30;;;;;;4983149;28;20034;-48
2022/07/13 02:04:11;;;;;;;6.93;4.32;;;21.00;96.10;;;;;;4984962;28;20050;-45
2022/07/13 02:06:37;;;;;;;4.75;3.97;;;21.10;96.00;;;;;;4982729;28;20538;-46
2022/07/13 02:09:03;;;;;;;4.93;3.92;;;21.00;95.80;;;;;;4986613;28;20070;-45
2022/07/13 02:11:29;;;;;;;5.47;4.32;;;21.10;95.90;;;;;;4982744;28;20038;-43
2022/07/13 02:13:55;;;;;;;6.75;3.97;;;21.10;95.80;;;;;;4982077;28;20042;-44
2022/07/13 02:16:21;;;;;;;4.65;3.70;;;21.10;95.70;;;;;;4980823;28;20035;-45
2022/07/13 02:18:47;;;;;;;4.88;3.60;;;21.10;95.70;;;;;;4981158;28;20035;-43
2022/07/13 02:21:12;;;;;;;4.78;3.67;;;21.10;95.70;;;;;;4986960;28;20431;-47
2022/07/13 02:23:39;;;;;;;8.20;3.67;;;21.00;95.60;;;;;;4986364;28;20125;-44
2022/07/13 02:26:05;;;;;;;6.20;4.10;;;21.10;95.70;;;;;;4982988;28;20042;-44
2022/07/13 02:28:30;;;;;;;5.05;4.10;;;21.00;95.60;;;;;;4985049;28;20038;-44
2022/07/13 02:30:56;;;;;;;6.03;4.35;;;21.00;95.70;;;;;;4984819;28;20078;-44
2022/07/13 02:33:21;;;;;;;8.85;4.88;;;21.00;95.80;;;;;;4977630;28;20078;-43
2022/07/13 02:35:47;;;;;;;5.47;3.63;;;21.00;95.80;;;;;;4979595;28;20376;-43
2022/07/13 02:38:13;;;;;;;6.50;4.55;;;20.90;95.90;;;;;;4980665;28;20137;-43
2022/07/13 02:40:38;;;;;;;5.35;4.45;;;21.00;96.00;;;;;;4982362;28;20476;-43
2022/07/13 02:43:04;;;;;;;5.57;4.30;;;21.00;96.00;;;;;;4984928;28;20368;-44
2022/07/13 02:45:30;;;;;;;7.95;4.63;;;20.90;95.90;;;;;;4980187;28;20038;-45
2022/07/13 02:47:56;;;;;;;4.45;3.50;;;20.90;96.00;;;;;;4985633;28;20132;-42
2022/07/13 02:50:22;;;;;;;5.38;4.25;;;20.90;96.00;;;;;;4983947;28;20153;-42
2022/07/13 02:52:47;;;;;;;6.07;4.40;;;20.90;96.00;;;;;;4984095;28;20054;-42
2022/07/13 02:55:13;;;;;;;5.30;4.40;;;20.90;96.00;;;;;;4984516;28;20140;-44
2022/07/13 02:57:39;;;;;;;5.25;4.25;;;20.90;96.00;;;;;;4983291;28;20053;-43
2022/07/13 03:00:06;;;;;;;4.93;4.10;;;20.90;96.00;;;;;;4982469;28;20059;-44
2022/07/13 03:02:32;;;;;;;6.40;4.45;;;20.90;96.00;;;;;;4985189;28;20042;-42
2022/07/13 03:04:58;;;;;;;6.28;4.50;;;20.90;96.10;;;;;;4983869;28;20109;-45
2022/07/13 03:07:23;;;;;;;5.60;3.90;;;20.90;96.10;;;;;;4982325;28;20043;-43
2022/07/13 03:09:49;;;;;;;5.82;4.32;;;20.90;96.10;;;;;;4982484;28;20065;-46
2022/07/13 03:12:15;;;;;;;6.15;4.47;;;20.90;96.20;;;;;;4981082;28;20034;-47
2022/07/13 03:14:40;;;;;;;7.22;4.70;;;20.90;96.20;;;;;;4983035;28;20027;-46
2022/07/13 03:17:06;;;;;;;7.05;4.65;;;20.80;96.20;;;;;;4981352;28;20050;-44
2022/07/13 03:19:32;;;;;;;5.47;4.70;;;20.80;96.30;;;;;;4982210;28;20053;-47
2022/07/13 03:21:58;;;;;;;8.20;4.47;;;20.80;96.20;;;;;;4979818;28;20035;-44
2022/07/13 03:24:24;;;;;;;6.38;5.30;;;20.80;96.40;;;;;;4983142;28;20672;-43
2022/07/13 03:26:49;;;;;;;7.32;4.25;;;20.80;96.50;;;;;;4982825;28;21098;-46
2022/07/13 03:29:15;;;;;;;6.43;4.80;;;20.70;96.50;;;;;;4980544;28;20526;-42
2022/07/13 03:31:41;;;;;;;5.65;4.53;;;20.70;96.60;;;;;;4984047;28;20042;-45
2022/07/13 03:34:06;;;;;;;6.72;4.40;;;20.70;96.70;;;;;;4984090;28;20453;-44
2022/07/13 03:36:32;;;;;;;8.52;5.05;;;20.70;96.60;;;;;;4981974;28;20034;-45
2022/07/13 03:38:58;;;;;;;5.50;4.40;;;20.70;96.60;;;;;;4984288;28;20521;-46
2022/07/13 03:41:23;;;;;;;6.43;4.50;;;20.70;96.50;;;;;;4980422;28;21507;-44
2022/07/13 03:43:49;;;;;;;6.18;5.18;;;20.70;96.40;;;;;;4982928;28;20042;-44
2022/07/13 03:46:14;;;;;;;6.55;4.35;;;20.70;96.20;;;;;;4983353;28;20044;-43
2022/07/13 03:48:40;;;;;;;6.13;4.35;;;20.70;96.10;;;;;;4983770;28;20081;-45
2022/07/13 03:51:06;;;;;;;6.18;4.00;;;20.70;96.10;;;;;;4984862;28;20145;-44
2022/07/13 03:53:31;;;;;;;5.90;4.53;;;20.70;96.10;;;;;;4983479;28;20058;-46
2022/07/13 03:55:57;;;;;;;6.25;4.20;;;20.70;96.20;;;;;;4981521;28;20046;-44
2022/07/13 03:58:23;;;;;;;5.68;4.82;;;20.60;96.30;;;;;;4985059;28;20034;-44
2022/07/13 04:00:49;;;;;;;4.78;4.00;;;20.60;96.40;;;;;;4986358;28;20050;-44
2022/07/13 04:03:14;;;;;;;6.65;4.47;;;20.60;96.40;;;;;;4988716;28;20120;-45
2022/07/13 04:05:40;;;;;;;7.43;4.97;;;20.60;96.40;;;;;;4985257;28;20074;-45
2022/07/13 04:08:06;;;;;;;5.28;3.78;;;20.60;96.50;;;;;;4981297;28;20038;-46
2022/07/13 04:10:31;;;;;;;4.97;3.47;;;20.60;96.60;;;;;;4984310;28;20058;-44
2022/07/13 04:12:58;;;;;;;7.00;4.18;;;20.50;96.60;;;;;;4983040;28;20047;-44
2022/07/13 04:15:24;;;;;;;5.03;4.10;;;20.50;96.70;;;;;;4981156;28;20153;-45
2022/07/13 04:17:50;;;;;;;4.93;3.88;;;20.50;96.70;;;;;;4981894;28;20117;-44
2022/07/13 04:20:16;;;;;;;5.20;3.53;;;20.50;96.70;;;;;;4986792;28;20495;-44
2022/07/13 04:22:41;;;;;;;4.80;3.58;;;20.50;96.80;;;;;;4985483;28;20042;-43
2022/07/13 04:25:08;;;;;;;3.55;3.10;;;20.50;96.90;;;;;;4985990;28;20070;-44
2022/07/13 04:27:34;;;;;;;4.70;3.25;;;20.50;97.10;;;;;;4985841;28;20433;-44
2022/07/13 04:30:00;;;;;;;4.65;3.72;;;20.50;97.30;;;;;;4984569;28;20136;-43
2022/07/13 04:32:26;;;;;;;5.13;3.60;;;20.50;97.60;;;;;;4984128;28;20042;-44
2022/07/13 04:34:52;;;;;;;5.10;3.60;;;20.50;97.40;;;;;;4988405;28;20096;-46
2022/07/13 04:37:17;;;;;;;4.28;3.28;;;20.50;97.20;;;;;;4982048;28;20447;-47
2022/07/13 04:39:43;;;;;;;4.30;2.50;;;20.50;97.10;;;;;;4986102;28;20053;-45
2022/07/13 04:42:09;;;;;;;3.88;2.83;;;20.50;97.10;;;;;;4983513;28;20045;-44
2022/07/13 04:44:34;;;;;;;4.05;2.92;;;20.60;97.20;;;;;;4985646;28;20035;-43
2022/07/13 04:47:00;;;;;;;4.82;3.03;;;20.60;97.10;;;;;;4985361;28;20038;-43
2022/07/13 04:49:26;;;;;;;5.90;3.10;;;20.60;97.10;;;;;;4984913;28;20039;-43
2022/07/13 04:51:51;;;;;;;4.10;2.70;;;20.60;97.20;;;;;;4982535;28;20056;-44
2022/07/13 04:54:21;;;;;;;5.57;2.58;;;20.60;97.20;;;;;;4984390;28;20046;-45
2022/07/13 04:56:48;;;;;;;4.03;2.60;;;20.60;97.20;;;;;;4987773;28;20121;-47
2022/07/13 04:59:14;;;;;;;3.63;2.15;;;20.60;97.20;;;;;;4985374;28;20042;-44
2022/07/13 05:01:41;;;;;;;3.47;2.08;;;20.70;97.30;;;;;;4984879;28;20420;-44
2022/07/13 05:04:07;;;;;;;3.92;2.25;;;20.70;97.30;;;;;;4982861;28;20065;-45
2022/07/13 05:06:33;;;;;;;6.93;2.53;;;20.80;97.40;;;;;;4984631;28;20050;-44
2022/07/13 05:08:59;;;;;;;5.65;2.40;;;20.90;97.30;;;;;;4983517;28;20559;-45
2022/07/13 05:11:24;;;;;;;4.85;2.28;;;20.90;97.60;;;;;;4979518;28;20890;-45
2022/07/13 05:13:51;;;;;;;3.47;2.58;;;21.00;97.50;;;;;;4980993;28;20064;-44
2022/07/13 05:16:17;;;;;;;5.50;2.67;;;21.00;97.30;;;;;;4980533;28;20034;-44
2022/07/13 05:18:42;;;;;;;2.80;2.00;;;21.00;97.20;;;;;;4980520;28;20038;-44
2022/07/13 05:21:08;;;;;;;4.03;2.28;;;21.00;96.80;;;;;;4980953;28;20038;-42
2022/07/13 05:23:35;;;;;;;3.20;2.10;;;21.10;96.40;;;;;;4980753;28;20123;-44
2022/07/13 05:26:01;;;;;;;5.25;2.35;;;21.20;96.00;;;;;;4979627;28;20051;-45
2022/07/13 05:28:27;;;;;;;3.03;2.22;;;21.20;95.70;;;;;;4983161;28;20081;-45
2022/07/13 05:30:52;;;;;;;4.93;2.22;;;21.30;95.40;;;;;;4979529;28;20084;-47
2022/07/13 05:33:20;;;;;;;6.95;1.95;;;21.40;95.30;;;;;;4984617;28;20043;-43
2022/07/13 05:35:46;;;;;;;9.32;2.70;;;21.50;95.10;;;;;;4983981;28;20121;-42
2022/07/13 05:38:12;;;;;;;5.50;2.58;;;21.60;94.90;;;;;;4979749;28;20121;-42
2022/07/13 05:40:37;;;;;;;8.13;2.65;;;21.70;94.40;;;;;;4985471;28;20578;-43
2022/07/13 05:43:04;;;;;;;3.08;2.25;;;21.70;93.90;;;;;;4986911;28;20092;-41
2022/07/13 05:45:29;;;;;;;4.38;2.28;;;21.70;93.80;;;;;;4980782;28;20626;-42
2022/07/13 05:47:55;;;;;;;4.38;2.67;;;21.80;94.00;;;;;;4981595;28;20133;-43
2022/07/13 05:50:21;;;;;;;4.95;2.65;;;21.90;94.20;;;;;;4981776;28;20101;-42
2022/07/13 05:52:46;;;;;;;3.25;2.75;;;21.90;94.00;;;;;;4982100;28;20499;-45
2022/07/13 05:55:12;;;;;;;7.78;3.15;;;21.90;93.70;;;;;;4980762;28;20037;-41
2022/07/13 05:57:38;;;;;;;4.43;3.17;;;21.90;93.30;;;;;;4977186;28;20506;-43
2022/07/13 06:00:10;;;;;;;4.35;3.05;;;22.00;93.10;;;;;;4978034;28;20050;-44
2022/07/13 06:02:35;;;;;;;4.97;3.20;;;22.00;93.00;;;;;;4981171;28;20137;-48
2022/07/13 06:05:01;;;;;;;4.15;2.75;;;22.10;93.10;;;;;;4980620;28;20141;-37
2022/07/13 06:07:27;;;;;;;5.78;3.20;;;22.10;93.30;;;;;;4983778;28;20474;-40
2022/07/13 06:09:52;;;;;;;5.15;3.47;;;22.10;93.40;;;;;;4982535;28;20054;-42
2022/07/13 06:12:18;;;;;;;5.07;3.40;;;22.20;93.40;;;;;;4981801;28;20074;-41
2022/07/13 06:14:44;;;;;;;6.97;3.85;;;22.20;93.80;;;;;;4979944;28;20060;-42
2022/07/13 06:17:09;;;;;;;5.57;3.78;;;22.20;93.40;;;;;;4985737;28;20451;-41
2022/07/13 06:19:35;;;;;;;4.68;3.42;;;22.30;93.50;;;;;;4980638;28;20038;-43
2022/07/13 06:22:01;;;;;;;5.95;3.88;;;22.30;93.60;;;;;;4984688;28;20042;-41
2022/07/13 06:24:26;;;;;;;7.13;4.50;;;22.40;93.70;;;;;;4979985;28;20049;-40
2022/07/13 06:26:52;;;;;;;10.70;4.78;;;22.50;93.80;;;;;;4980233;28;20034;-37
2022/07/13 06:29:18;;;;;;;7.72;4.80;;;22.50;93.90;;;;;;4979721;28;20030;-39
2022/07/13 06:31:44;;;;;;;9.00;4.65;;;22.60;93.90;;;;;;4985010;28;20042;-42
2022/07/13 06:34:09;;;;;;;10.18;4.88;;;22.60;93.70;;;;;;4979311;28;20404;-40
2022/07/13 06:36:36;;;;;;;7.88;4.90;;;22.70;93.50;;;;;;4982349;28;20034;-40
2022/07/13 06:39:02;;;;;;;8.52;5.18;;;22.70;93.50;;;;;;4982814;28;20491;-41
2022/07/13 06:41:27;;;;;;;8.50;5.40;;;22.80;93.20;;;;;;4983573;28;20038;-40
2022/07/13 06:43:53;;;;;;;9.63;6.15;;;22.80;93.30;;;;;;4984172;28;20042;-41
2022/07/13 06:46:19;;;;;;;11.10;5.85;;;22.80;93.10;;;;;;4982293;28;20113;-42
2022/07/13 06:48:44;;;;;;;9.98;6.55;;;22.80;93.30;;;;;;4980248;28;20465;-41
2022/07/13 06:51:11;;;;;;;8.85;6.10;;;22.80;93.50;;;;;;4987332;28;20093;-41
2022/07/13 06:53:36;;;;;;;8.65;6.03;;;22.80;93.80;;;;;;4982638;28;20043;-41
2022/07/13 06:56:03;;;;;;;12.25;6.05;;;22.80;94.00;;;;;;4983287;28;20555;-42
2022/07/13 06:58:29;;;;;;;10.23;7.15;;;22.80;94.20;;;;;;4988749;28;20050;-40
2022/07/13 07:00:54;;;;;;;10.30;6.45;;;22.80;94.20;;;;;;4999156;28;20407;-41
2022/07/13 07:03:20;;;;;;;7.53;6.07;;;22.90;94.30;;;;;;4984234;28;20431;-40
2022/07/13 07:05:46;;;;;;;7.90;5.78;;;23.00;94.20;;;;;;4985444;28;20071;-41
2022/07/13 07:08:11;;;;;;;9.43;6.47;;;23.10;94.40;;;;;;4984742;28;20038;-41
2022/07/13 07:10:37;;;;;;;8.77;5.68;;;23.30;94.20;;;;;;4986067;28;20385;-41
2022/07/13 07:13:03;;;;;;;9.60;5.45;;;23.50;94.10;;;;;;4982924;28;20373;-40
2022/07/13 07:15:29;;;;;;;7.40;5.68;;;23.60;93.50;;;;;;4987513;28;20121;-39
2022/07/13 07:17:54;;;;;;;7.95;5.70;;;23.70;93.00;;;;;;4984931;28;20038;-41
2022/07/13 07:20:20;;;;;;;8.05;4.90;;;23.70;93.10;;;;;;4981504;28;20030;-42
2022/07/13 07:22:46;;;;;;;7.63;5.20;;;23.70;92.90;;;;;;4984862;28;20073;-41
2022/07/13 07:25:13;;;;;;;6.80;5.03;;;23.70;93.10;;;;;;4979432;28;20093;-41
2022/07/13 07:27:40;;;;;;;7.82;4.57;;;23.80;93.10;;;;;;4981571;28;20045;-41
2022/07/13 07:30:06;;;;;;;8.27;5.43;;;23.80;92.80;;;;;;4999133;28;20416;-40
2022/07/13 07:32:32;;;;;;;13.18;5.88;;;23.90;92.90;;;;;;4985780;28;20034;-41
2022/07/13 07:34:58;;;;;;;6.82;4.90;;;23.90;92.70;;;;;;4982989;28;20075;-39
2022/07/13 07:37:24;;;;;;;7.60;6.03;;;23.90;92.60;;;;;;4981535;28;20677;-40
2022/07/13 07:39:50;;;;;;;7.28;5.65;;;23.90;92.60;;;;;;4985767;28;20034;-40
2022/07/13 07:42:16;;;;;;;6.95;4.90;;;23.90;92.40;;;;;;4980087;28;20044;-40
2022/07/13 07:44:42;;;;;;;6.22;4.70;;;23.90;92.90;;;;;;4987330;28;20042;-40
2022/07/13 07:47:08;;;;;;;8.20;5.45;;;24.00;92.90;;;;;;4988719;28;20030;-39
2022/07/13 07:49:34;;;;;;;9.27;4.95;;;24.10;92.80;;;;;;4992208;28;20629;-40
2022/07/13 07:52:00;;;;;;;9.88;4.95;;;24.10;92.80;;;;;;4987488;28;20484;-40
2022/07/13 07:54:26;;;;;;;10.43;5.38;;;24.20;92.80;;;;;;4983864;28;20043;-41
2022/07/13 07:56:52;;;;;;;10.50;5.40;;;24.30;92.90;;;;;;4985847;28;20150;-40
2022/07/13 07:59:18;;;;;;;8.98;4.93;;;24.40;92.40;;;;;;4987775;28;20046;-40
2022/07/13 08:01:44;;;;;;;6.97;4.57;;;24.40;92.50;;;;;;4987762;28;20038;-40
2022/07/13 08:04:10;;;;;;;6.70;3.90;;;24.50;92.60;;;;;;4985283;28;20050;-41
2022/07/13 08:06:38;;;;;;;6.18;4.03;;;24.50;92.40;;;;;;4990078;28;20066;-40
2022/07/13 08:09:04;;;;;;;7.53;4.97;;;24.60;92.10;;;;;;4987047;28;20042;-40
2022/07/13 08:11:29;;;;;;;5.57;4.18;;;24.60;92.20;;;;;;4988455;28;20152;-40
2022/07/13 08:13:55;;;;;;;8.45;4.70;;;24.70;92.20;;;;;;4989830;28;20078;-41
2022/07/13 08:16:21;;;;;;;8.70;3.88;;;24.80;92.10;;;;;;4991438;28;20073;-41
2022/07/13 08:18:47;;;;;;;5.90;5.00;;;24.80;92.00;;;;;;4986900;28;20045;-40
2022/07/13 08:21:13;;;;;;;12.85;5.60;;;24.90;91.50;;;;;;4983145;28;20030;-40
2022/07/13 08:23:51;;;;;;;7.30;4.63;;;25.00;91.70;;;;;;4986554;28;20053;-41
2022/07/13 08:26:18;;;;;;;5.72;4.60;;;25.00;91.20;;;;;;4987020;28;20083;-40
2022/07/13 08:28:44;;;;;;;4.70;3.95;;;25.00;91.30;;;;;;4987371;28;20050;-40
2022/07/13 08:31:11;;;;;;;5.95;4.35;;;25.10;91.50;;;;;;4989320;28;20045;-41
2022/07/13 08:39:06;;;;;;;5.35;3.03;;;25.20;91.10;;;;;;4990135;28;20049;-40
2022/07/13 08:41:32;;;;;;;6.53;3.50;;;25.20;91.40;;;;;;4985091;28;20120;-40
2022/07/13 08:43:59;;;;;;;4.13;2.70;;;25.30;90.90;;;;;;4987514;28;20049;-42
2022/07/13 08:46:26;;;;;;;8.13;3.35;;;25.30;90.80;;;;;;4990936;28;20145;-41
2022/07/13 08:48:54;;;;;;;6.03;3.35;;;25.30;90.30;;;;;;4989300;28;20046;-42
2022/07/13 08:51:21;;;;;;;5.18;3.20;;;25.40;90.20;;;;;;4988466;28;20038;-40
2022/07/13 08:53:51;;;;;;;4.68;3.20;;;25.40;90.40;;;;;;4984562;28;20074;-41
2022/07/13 08:56:17;;;;;;;8.35;3.45;;;25.50;90.10;;;;;;4985925;28;20041;-43
2022/07/13 08:58:43;;;;;;;5.78;3.10;;;25.50;90.10;;;;;;4984978;28;20122;-41
2022/07/13 09:01:10;;;;;;;5.57;3.47;;;25.60;90.10;;;;;;4988630;28;20121;-42
2022/07/13 09:03:36;;;;;;;6.07;3.03;;;25.70;90.00;;;;;;4981906;28;20042;-43
2022/07/13 09:06:04;;;;;;;4.90;2.92;;;25.70;89.60;;;;;;4984735;28;20518;-42
2022/07/13 09:08:30;;;;;;;5.72;3.10;;;25.80;88.90;;;;;;4984305;28;20046;-43
2022/07/13 09:11:01;;;;;;;8.10;3.53;;;25.90;88.70;;;;;;4980059;28;20057;-43
2022/07/13 09:13:44;;;;;;;5.32;2.67;;;26.00;88.60;;;;;;4983508;28;20057;-42
2022/07/13 09:16:17;;;;;;;6.47;3.33;;;26.00;89.40;;;;;;4986403;28;20541;-42
2022/07/13 09:18:44;;;;;;;5.15;3.38;;;26.10;88.80;;;;;;4986785;28;20542;-42
2022/07/13 09:21:10;;;;;;;4.80;3.13;;;26.30;88.70;;;;;;4987067;28;20132;-43
2022/07/13 09:23:35;;;;;;;5.45;3.80;;;26.30;88.70;;;;;;4988176;28;20621;-43
2022/07/13 09:26:01;;;;;;;6.05;3.88;;;26.30;88.60;;;;;;4989243;28;20074;-44
2022/07/13 09:28:27;;;;;;;5.85;3.28;;;26.30;87.70;;;;;;4984194;28;20973;-43
2022/07/13 09:30:59;;;;;;;6.25;3.50;;;26.30;88.50;;;;;;4985076;28;20069;-45
2022/07/13 09:33:33;;;;;;;5.68;3.75;;;26.30;89.20;;;;;;4985749;28;20559;-46
2022/07/13 09:36:07;;;;;;;8.05;3.92;;;26.30;89.90;;;;;;4983221;28;20458;-45
2022/07/13 09:38:41;;;;;;;9.27;3.80;;;26.50;88.70;;;;;;4986973;28;20572;-42
2022/07/13 09:41:19;;;;;;;6.40;3.67;;;26.50;88.00;;;;;;4988116;28;20508;-43
2022/07/13 09:46:57;;;;;;;6.05;3.90;;;26.60;86.90;;;;;;4984505;28;20042;-44
2022/07/13 09:49:29;;;;;;;10.07;4.47;;;26.70;87.20;;;;;;4985688;28;20046;-43
2022/07/13 09:52:00;;;;;;;6.05;3.90;;;26.70;85.40;;;;;;4983919;28;20529;-47
2022/07/13 09:54:30;;;;;;;6.68;4.00;;;26.70;87.20;;;;;;4977191;28;20039;-44
2022/07/13 09:57:01;;;;;;;7.47;3.88;;;26.80;86.50;;;;;;4976627;28;20220;-43
2022/07/13 09:59:29;;;;;;;5.63;3.67;;;26.80;86.70;;;;;;4988893;28;20066;-42
2022/07/13 10:01:55;;;;;;;6.15;3.85;;;26.90;87.00;;;;;;4984169;28;20093;-43
2022/07/13 10:04:22;;;;;;;5.53;3.70;;;26.80;86.60;;;;;;4977537;28;20146;-43
2022/07/13 10:06:50;;;;;;;6.13;3.05;;;26.90;86.10;;;;;;4979378;28;20113;-44
2022/07/13 10:09:33;;;;;;;7.05;3.00;;;26.90;85.10;;;;;;4985659;28;20364;-44
2022/07/13 10:12:00;;;;;;;4.35;2.70;;;26.90;86.20;;;;;;4982715;28;20551;-46
2022/07/13 10:14:27;;;;;;;6.72;3.63;;;27.00;86.00;;;;;;4981151;28;20057;-43
2022/07/13 10:17:00;;;;;;;5.88;3.05;;;27.10;84.80;;;;;;4980213;28;20125;-44
2022/07/13 10:19:26;;;;;;;5.30;3.13;;;27.10;83.10;;;;;;4980129;28;20077;-47
2022/07/13 10:22:02;;;;;;;8.05;2.95;;;27.10;82.70;;;;;;4986771;28;20038;-45
2022/07/13 10:24:28;;;;;;;5.60;2.90;;;27.10;82.50;;;;;;4984631;28;20472;-43
2022/07/13 10:27:24;;;;;;;5.70;3.45;;;27.20;83.30;;;;;;4983808;28;20042;-43
2022/07/13 10:29:55;;;;;;;9.20;3.10;;;27.30;82.80;;;;;;4987886;28;20034;-44
2022/07/13 10:32:29;;;;;;;4.13;2.93;;;27.30;82.90;;;;;;4981538;28;20054;-44
2022/07/13 10:34:59;;;;;;;4.53;2.97;;;27.40;82.00;;;;;;4983404;28;20065;-43
2022/07/13 10:37:26;;;;;;;5.47;2.40;;;27.40;81.10;;;;;;4983239;28;20066;-41
2022/07/13 10:40:11;;;;;;;4.55;2.72;;;27.50;82.00;;;;;;4960765;28;20073;-41
2022/07/13 10:42:57;;;;;;;6.72;2.50;;;27.60;79.30;;;;;;4977270;28;20134;-41
2022/07/13 10:45:52;;;;;;;3.50;2.15;;;27.70;75.00;;;;;;4980785;28;20131;-41
2022/07/13 10:48:29;;;;;;;4.53;2.50;;;27.90;78.50;;;;;;4978965;28;20195;-42
2022/07/13 10:51:16;;;;;;;4.60;1.95;;;28.00;76.40;;;;;;4979628;28;20160;-41
2022/07/13 10:53:46;;;;;;;5.40;2.47;;;28.30;74.10;;;;;;4980604;28;20043;-42
2022/07/13 10:56:19;;;;;;;4.57;2.00;;;28.30;74.70;;;;;;4983011;28;20113;-41
2022/07/13 10:58:46;;;;;;;3.35;2.45;;;28.30;72.60;;;;;;4979960;28;20041;-42
2022/07/13 11:01:32;;;;;;;4.13;2.20;;;28.30;72.60;;;;;;4978178;28;20030;-41
2022/07/13 11:03:58;;;;;;;2.78;2.05;;;28.40;73.30;;;;;;4980928;28;20132;-42
2022/07/13 11:06:24;;;;;;;4.63;2.35;;;28.40;71.60;;;;;;4981416;28;20503;-41
2022/07/13 11:09:14;;;;;;;4.50;2.38;;;28.40;68.60;;;;;;4984530;28;20050;-41
2022/07/13 11:11:58;;;;;;;4.90;2.00;;;28.50;66.60;;;;;;4983181;28;20656;-43
2022/07/13 11:14:35;;;;;;;6.45;2.17;;;28.50;68.90;;;;;;4986842;28;20486;-43
2022/07/13 11:17:14;;;;;;;4.90;2.10;;;28.60;67.80;;;;;;4987589;28;20045;-41
2022/07/13 11:19:53;;;;;;;3.78;2.15;;;28.60;65.60;;;;;;4984431;28;20057;-41
2022/07/13 11:22:20;;;;;;;5.95;2.20;;;28.60;62.40;;;;;;4984948;28;20499;-42
2022/07/13 11:25:15;;;;;;;7.43;2.05;;;28.60;65.40;;;;;;4988677;28;20045;-41
2022/07/13 11:28:07;;;;;;;2.75;1.50;;;28.60;62.20;;;;;;4982471;28;20035;-41
2022/07/13 11:30:35;;;;;;;2.13;1.33;;;28.60;65.10;;;;;;4986372;28;20468;-43
2022/07/13 11:33:01;;;;;;;4.15;1.48;;;28.70;62.10;;;;;;4985188;28;20637;-42
2022/07/13 11:35:27;;;;;;;5.63;1.35;;;28.70;60.60;;;;;;4987629;28;20042;-43
2022/07/13 11:37:53;;;;;;;5.57;1.75;;;28.70;59.40;;;;;;4986268;28;20142;-41
2022/07/13 11:40:32;;;;;;;4.70;1.70;;;28.70;57.10;;;;;;4981155;28;20117;-42
2022/07/13 11:43:00;;;;;;;4.25;1.58;;;28.70;53.60;;;;;;4987148;28;20038;-42
2022/07/13 11:45:31;;;;;;;1.67;1.27;;;28.60;54.70;;;;;;4986333;28;20051;-41
2022/07/13 11:48:01;;;;;;;4.03;1.50;;;28.70;54.00;;;;;;4982272;28;20034;-41
2022/07/13 11:50:45;;;;;;;3.88;1.50;;;28.70;55.40;;;;;;4987475;28;20057;-41
2022/07/13 11:53:22;;;;;;;2.33;1.42;;;28.70;52.00;;;;;;4987608;28;20039;-43
2022/07/13 11:55:47;;;;;;;8.60;1.60;;;28.70;54.30;;;;;;4982857;28;20078;-41
2022/07/13 11:58:33;;;;;;;3.20;1.77;;;28.70;55.10;;;;;;4989611;28;20100;-41
2022/07/13 12:01:00;;;;;;;5.05;1.30;;;28.80;53.50;;;;;;4983207;28;20037;-42
2022/07/13 12:03:28;;;;;;;3.50;1.60;;;28.90;52.80;;;;;;4988410;28;20074;-41
2022/07/13 12:06:02;;;;;;;3.30;1.42;;;28.90;51.40;;;;;;4990893;28;20046;-42
2022/07/13 12:08:31;;;;;;;5.80;2.60;;;29.10;51.30;;;;;;4986436;28;20526;-41
2022/07/13 12:10:56;;;;;;;5.35;2.80;;;29.20;52.90;;;;;;4986426;28;20598;-42
2022/07/13 12:13:22;;;;;;;5.57;2.38;;;29.30;54.60;;;;;;4985935;28;20046;-43
2022/07/13 12:15:49;;;;;;;4.82;2.15;;;29.20;55.20;;;;;;4984124;28;20488;-41
2022/07/13 12:18:14;;;;;;;5.13;2.33;;;29.30;56.00;;;;;;4987845;28;20536;-42
2022/07/13 12:20:41;;;;;;;3.70;2.20;;;29.30;54.90;;;;;;4985940;28;20133;-42
2022/07/13 12:23:07;;;;;;;4.40;2.08;;;29.40;53.60;;;;;;4990486;28;20038;-43
2022/07/13 12:25:36;;;;;;;4.07;1.50;;;29.40;53.30;;;;;;4983259;28;20460;-41
2022/07/13 12:28:05;;;;;;;12.48;1.88;;;29.40;51.40;;;;;;4982042;28;20039;-42
2022/07/13 12:30:33;;;;;;;3.25;1.35;;;29.50;51.20;;;;;;4983683;28;20121;-42
2022/07/13 12:33:02;;;;;;;4.25;1.48;;;29.60;49.70;;;;;;4985226;28;20038;-41
2022/07/13 12:35:30;;;;;;;3.30;1.27;;;29.60;48.60;;;;;;4989829;28;20050;-41
2022/07/13 12:37:58;;;;;;;2.85;1.10;;;29.50;48.00;;;;;;4981968;28;20165;-41
2022/07/13 12:40:46;;;;;;;4.00;1.35;;;29.50;48.20;;;;;;4989392;28;20069;-41
2022/07/13 12:43:21;;;;;;;4.38;1.30;;;29.50;47.50;;;;;;4985327;28;20141;-41
2022/07/13 12:45:49;;;;;;;4.90;1.45;;;29.60;47.90;;;;;;4983070;28;20717;-41
2022/07/13 12:48:23;;;;;;;2.60;1.00;;;29.70;47.70;;;;;;4986997;28;20116;-41
2022/07/13 12:51:05;;;;;;;1.75;1.08;;;29.60;47.10;;;;;;4982053;28;20114;-42
2022/07/13 12:53:56;;;;;;;3.70;1.40;;;29.60;45.30;;;;;;4985469;28;20077;-42
2022/07/13 12:56:29;;;;;;;2.92;1.27;;;29.50;47.30;;;;;;4985600;28;20599;-43
2022/07/13 12:58:56;;;;;;;2.08;1.20;;;29.50;48.10;;;;;;4982336;28;20558;-42